Main page
METAR-TAF:

METAR-TAF

Airports :

Alderney Airport

Alderney,

latitude: 49-43N, longitude: 002-12W, elevation: 71 m

Current weather observation

The report was made 6 hours and 6 minutes ago, at 17:20 UTC
Wind 16 kt from the East
Temperature 13°C
Humidity 82%
Pressure 1001 hPa
Visibility 10 km or more
no clouds below 1500 m and no cumulonimbus

METAR: EGJA 221720Z 08016KT CAVOK 13/10 Q1001

Time: 00:26 (23:26 UTC)

Forecast

The report was made 9 hours and 31 minutes ago, at 13:55 UTC
Forecast valid from 22 at 15 UTC to 22 at 19 UTC
Wind 5 kt from variable directions
Visibility 10 km or more
no clouds below 1500 m and no cumulonimbus
Becoming
from 22 at 15 UTC to 22 at 16 UTC
Wind 10 kt from the East
Probability 30% :
Temporary
from 22 at 16 UTC to 22 at 19 UTC
Wind 15 kt from the East with gusts up to 28 kt
Visibility: 5000 m
Broken clouds at a height of 5000 ft, Cumulonimbus.
rain showers

TAF: EGJA 221355Z 2215/2219 VRB05KT CAVOK BECMG 2215/2216 08010KT PROB30 TEMPO 2216/2219 08015G28KT 5000 SHRA BKN050CB

Weather observations and forecasts of more than 4000 airports (METAR and TAF reports).

The available stations are represented by yellow and red dots on the map.

Hover mouse over dot to see the name of the station.

Then click to see weather observations and forecasts.

To change the map : click on the green buttons with a black cross to zoom in, on the green button with a dash to zoom out, or on the green arrows for adjacent maps.


METAR-TAF: